createdAt,value
2023-03-18T00:00:43.764Z,9.00
2023-03-18T00:03:13.281Z,9.90
2023-03-18T00:05:42.370Z,9.10
2023-03-18T00:08:10.852Z,10.70
2023-03-18T00:10:39.842Z,9.90
2023-03-18T00:13:08.003Z,10.60
2023-03-18T00:15:42.833Z,10.10
2023-03-18T00:18:11.378Z,9.60
2023-03-18T00:20:39.713Z,9.30
2023-03-18T00:23:10.379Z,10.30
2023-03-18T00:25:39.143Z,10.80
2023-03-18T00:28:07.551Z,9.40
2023-03-18T00:30:38.221Z,8.60
2023-03-18T00:33:07.504Z,9.70
2023-03-18T00:35:37.809Z,10.30
2023-03-18T00:38:16.093Z,15.10
2023-03-18T00:40:53.756Z,14.60
2023-03-18T00:43:23.380Z,17.30
2023-03-18T00:45:51.682Z,13.70
2023-03-18T00:48:24.313Z,20.30
2023-03-18T00:50:53.046Z,14.30
2023-03-18T00:53:23.889Z,15.60
2023-03-18T00:55:52.802Z,11.40
2023-03-18T00:58:20.863Z,10.60
2023-03-18T01:00:49.343Z,11.30
2023-03-18T01:03:19.044Z,12.20
2023-03-18T01:05:47.730Z,14.10
2023-03-18T01:08:15.872Z,10.50
2023-03-18T01:10:44.185Z,9.40
2023-03-18T01:13:12.788Z,9.00
2023-03-18T01:15:42.069Z,8.90
2023-03-18T01:18:11.487Z,7.40
2023-03-18T01:20:39.855Z,9.20
2023-03-18T01:23:09.059Z,9.40
2023-03-18T01:25:38.881Z,8.90
2023-03-18T01:28:07.205Z,9.60
2023-03-18T01:30:38.506Z,9.70
2023-03-18T01:33:08.421Z,7.70
2023-03-18T01:35:39.784Z,9.50
2023-03-18T01:38:08.723Z,9.80
2023-03-18T01:40:40.349Z,8.50
2023-03-18T01:43:10.752Z,8.30
2023-03-18T01:45:40.519Z,8.70
2023-03-18T01:48:14.070Z,9.10
2023-03-18T01:50:43.579Z,7.70
2023-03-18T01:53:14.258Z,7.30
2023-03-18T01:55:42.699Z,7.70
2023-03-18T01:58:17.415Z,6.60
2023-03-18T02:00:50.065Z,8.80
2023-03-18T02:03:20.318Z,8.40
2023-03-18T02:05:50.131Z,8.70
2023-03-18T02:08:19.071Z,13.40
2023-03-18T02:10:49.389Z,15.00
2023-03-18T02:13:18.848Z,17.30
2023-03-18T02:15:53.371Z,13.50
2023-03-18T02:18:28.643Z,11.80
2023-03-18T02:21:20.796Z,10.30
2023-03-18T02:26:33.286Z,11.80
2023-03-18T02:29:11.520Z,11.90
2023-03-18T02:31:46.961Z,11.50
2023-03-18T02:34:15.642Z,15.40
2023-03-18T02:36:44.140Z,11.40
2023-03-18T02:39:14.200Z,9.00
2023-03-18T02:41:43.529Z,12.00
2023-03-18T02:44:12.368Z,10.70
2023-03-18T02:46:52.290Z,11.50
2023-03-18T02:49:21.883Z,10.60
2023-03-18T02:51:50.651Z,13.80
2023-03-18T02:54:24.225Z,11.80
2023-03-18T02:56:52.861Z,11.70
2023-03-18T02:59:22.167Z,11.00
2023-03-18T03:01:53.623Z,12.40
2023-03-18T03:04:23.788Z,9.30
2023-03-18T03:06:53.110Z,12.00
2023-03-18T03:09:31.309Z,11.40
2023-03-18T03:11:59.833Z,10.70
2023-03-18T03:14:29.339Z,8.30
2023-03-18T03:17:00.231Z,8.10
2023-03-18T03:19:31.864Z,8.20
2023-03-18T03:22:00.949Z,12.90
2023-03-18T03:24:30.506Z,8.70
2023-03-18T03:27:00.765Z,9.80
2023-03-18T03:29:29.543Z,9.50
2023-03-18T03:31:57.781Z,10.00
2023-03-18T03:34:26.017Z,12.40
2023-03-18T03:36:54.305Z,8.60
2023-03-18T03:39:23.230Z,10.10
2023-03-18T03:41:53.092Z,10.10
2023-03-18T03:44:24.656Z,9.50
2023-03-18T03:46:53.278Z,9.60
2023-03-18T03:49:23.263Z,10.20
2023-03-18T03:51:51.549Z,12.00
2023-03-18T03:54:20.641Z,9.70
2023-03-18T03:56:50.649Z,9.40
2023-03-18T03:59:19.540Z,9.80
2023-03-18T04:04:32.979Z,11.00
2023-03-18T04:07:01.474Z,11.20
2023-03-18T04:09:30.645Z,10.90
2023-03-18T04:11:58.974Z,10.50
2023-03-18T04:14:27.274Z,8.80
2023-03-18T04:16:59.653Z,12.40
2023-03-18T04:19:30.641Z,9.30
2023-03-18T04:21:58.920Z,9.50
2023-03-18T04:24:27.631Z,8.80
2023-03-18T04:26:55.988Z,9.00
2023-03-18T04:29:24.569Z,9.20
2023-03-18T04:31:53.450Z,8.40
2023-03-18T04:34:22.883Z,7.40
2023-03-18T04:36:51.566Z,10.90
2023-03-18T04:39:20.663Z,10.70
2023-03-18T04:41:50.959Z,8.50
2023-03-18T04:44:19.487Z,7.70
2023-03-18T04:46:53.760Z,8.30
2023-03-18T04:49:22.565Z,9.50
2023-03-18T04:51:50.964Z,7.60
2023-03-18T04:54:28.485Z,8.30
2023-03-18T04:56:58.563Z,9.10
2023-03-18T04:59:28.575Z,7.10
2023-03-18T05:01:57.080Z,8.10
2023-03-18T05:04:26.219Z,11.90
2023-03-18T05:06:55.812Z,9.20
2023-03-18T05:09:28.968Z,7.50
2023-03-18T05:12:01.450Z,7.40
2023-03-18T05:14:35.460Z,11.10
2023-03-18T05:17:04.771Z,9.00
2023-03-18T05:22:17.785Z,11.40
2023-03-18T05:24:46.692Z,10.60
2023-03-18T05:27:17.381Z,10.80
2023-03-18T05:29:48.518Z,10.10
2023-03-18T05:32:27.342Z,13.30
2023-03-18T05:35:01.105Z,12.30
2023-03-18T05:37:30.088Z,22.30
2023-03-18T05:40:11.852Z,24.10
2023-03-18T05:42:55.047Z,8.50
2023-03-18T05:45:27.831Z,9.70
2023-03-18T05:47:57.514Z,14.80
2023-03-18T05:50:35.732Z,9.90
2023-03-18T05:53:06.460Z,15.00
2023-03-18T05:55:36.391Z,11.80
2023-03-18T05:58:05.164Z,11.30
2023-03-18T06:00:35.692Z,13.10
2023-03-18T06:03:05.033Z,7.50
2023-03-18T06:05:34.482Z,13.50
2023-03-18T06:08:03.298Z,11.10
2023-03-18T06:10:32.491Z,13.40
2023-03-18T06:13:02.205Z,8.70
2023-03-18T06:15:32.575Z,19.90
2023-03-18T06:18:05.116Z,10.20
2023-03-18T06:20:34.834Z,24.50
2023-03-18T06:23:10.215Z,11.30
2023-03-18T06:25:38.647Z,10.60
2023-03-18T06:28:07.657Z,14.30
2023-03-18T06:30:37.363Z,18.10
2023-03-18T06:33:06.731Z,15.80
2023-03-18T06:35:38.432Z,15.30
2023-03-18T06:38:09.155Z,9.30
2023-03-18T06:40:37.950Z,9.00
2023-03-18T06:43:07.017Z,7.60
2023-03-18T06:45:38.468Z,5.70
2023-03-18T06:48:09.845Z,7.80
2023-03-18T06:50:42.381Z,7.00
2023-03-18T06:53:19.193Z,7.40
2023-03-18T06:55:49.727Z,7.40
2023-03-18T06:58:18.683Z,7.90
2023-03-18T07:01:00.654Z,11.60
2023-03-18T07:03:33.057Z,9.30
2023-03-18T07:06:02.812Z,15.10
2023-03-18T07:08:33.921Z,12.60
2023-03-18T07:11:03.894Z,12.90
2023-03-18T07:13:34.925Z,13.90
2023-03-18T07:16:05.821Z,19.50
2023-03-18T07:18:34.745Z,9.50
2023-03-18T07:21:11.567Z,17.50
2023-03-18T07:23:41.232Z,7.70
2023-03-18T07:26:10.229Z,7.70
2023-03-18T07:28:39.695Z,9.20
2023-03-18T07:31:08.010Z,10.90
2023-03-18T07:33:42.270Z,7.90
2023-03-18T07:36:10.912Z,10.30
2023-03-18T07:38:40.171Z,8.50
2023-03-18T07:41:08.735Z,19.00
2023-03-18T07:43:37.791Z,10.90
2023-03-18T07:46:06.951Z,9.20
2023-03-18T07:48:35.486Z,11.10
2023-03-18T07:51:03.952Z,10.70
2023-03-18T07:53:33.810Z,10.60
2023-03-18T07:56:03.551Z,10.30
2023-03-18T07:58:38.848Z,9.40
2023-03-18T08:01:07.780Z,10.70
2023-03-18T08:03:36.387Z,11.50
2023-03-18T08:06:06.066Z,10.20
2023-03-18T08:08:35.010Z,10.60
2023-03-18T08:11:06.604Z,14.00
2023-03-18T08:13:38.594Z,7.30
2023-03-18T08:16:07.264Z,8.50
2023-03-18T08:18:37.993Z,7.50
2023-03-18T08:21:07.987Z,6.40
2023-03-18T08:23:37.424Z,11.30
2023-03-18T08:26:07.899Z,8.90
2023-03-18T08:28:36.704Z,7.50
2023-03-18T08:31:10.384Z,7.60
2023-03-18T08:33:40.007Z,7.60
2023-03-18T08:36:08.800Z,6.10
2023-03-18T08:38:40.541Z,7.30
2023-03-18T08:41:10.476Z,9.30
2023-03-18T08:43:39.461Z,6.80
2023-03-18T08:46:09.122Z,7.00
2023-03-18T08:48:37.356Z,7.40
2023-03-18T08:51:08.420Z,8.30
2023-03-18T08:53:40.590Z,6.20
2023-03-18T08:56:15.133Z,9.00
2023-03-18T08:58:46.043Z,7.50
2023-03-18T09:01:15.187Z,6.60
2023-03-18T09:03:45.024Z,5.60
2023-03-18T09:06:13.581Z,5.00
2023-03-18T09:08:41.879Z,5.10
2023-03-18T09:11:10.852Z,9.50
2023-03-18T09:13:39.306Z,6.40
2023-03-18T09:16:15.008Z,4.80
2023-03-18T09:18:45.250Z,6.30
2023-03-18T09:21:15.361Z,6.50
2023-03-18T09:23:43.951Z,5.80
2023-03-18T09:26:12.324Z,6.70
2023-03-18T09:28:43.645Z,11.30
2023-03-18T09:31:13.807Z,7.90
2023-03-18T09:33:43.531Z,5.40
2023-03-18T09:36:12.744Z,5.20
2023-03-18T09:38:42.852Z,6.80
2023-03-18T09:44:21.702Z,5.00
2023-03-18T09:47:20.898Z,8.30
2023-03-18T09:49:54.006Z,7.90
2023-03-18T09:52:22.576Z,9.10
2023-03-18T09:55:22.626Z,7.60
2023-03-18T09:57:51.917Z,8.50
2023-03-18T10:00:37.019Z,5.10
2023-03-18T10:03:24.343Z,12.40
2023-03-18T10:05:56.829Z,6.70
2023-03-18T10:08:35.915Z,8.00
2023-03-18T10:11:07.060Z,16.70
2023-03-18T10:13:47.879Z,7.70
2023-03-18T10:16:29.306Z,6.40
2023-03-18T10:18:57.539Z,7.90
2023-03-18T10:22:00.162Z,7.70
2023-03-18T10:24:46.914Z,4.40
2023-03-18T10:27:19.346Z,6.10
2023-03-18T10:29:53.261Z,4.90
2023-03-18T10:33:13.380Z,5.00
2023-03-18T10:35:51.560Z,6.40
2023-03-18T10:38:28.279Z,7.60
2023-03-18T10:40:56.507Z,5.90
2023-03-18T10:43:26.396Z,4.50
2023-03-18T10:46:06.113Z,4.40
2023-03-18T10:48:38.813Z,6.00
2023-03-18T10:51:24.965Z,5.30
2023-03-18T10:54:05.939Z,5.60
2023-03-18T10:56:36.064Z,6.50
2023-03-18T10:59:16.317Z,5.00
2023-03-18T11:01:47.082Z,5.50
2023-03-18T11:04:19.136Z,7.60
2023-03-18T11:06:58.358Z,5.10
2023-03-18T11:09:36.420Z,4.60
2023-03-18T11:12:06.957Z,5.10
2023-03-18T11:14:37.541Z,4.90
2023-03-18T11:17:19.011Z,4.40
2023-03-18T11:19:49.149Z,5.70
2023-03-18T11:22:24.293Z,9.10
2023-03-18T11:25:13.996Z,6.40
2023-03-18T11:27:51.367Z,4.10
2023-03-18T11:30:34.120Z,6.00
2023-03-18T11:33:04.206Z,4.60
2023-03-18T11:35:57.920Z,6.50
2023-03-18T11:38:34.746Z,6.80
2023-03-18T11:41:30.456Z,5.10
2023-03-18T11:44:03.788Z,4.10
2023-03-18T11:46:36.613Z,3.50
2023-03-18T11:52:04.987Z,5.30
2023-03-18T11:54:56.366Z,5.80
2023-03-18T11:57:30.484Z,4.70
2023-03-18T12:00:17.692Z,4.20
2023-03-18T12:02:46.518Z,4.60
2023-03-18T12:05:29.242Z,4.10
2023-03-18T12:08:03.847Z,3.20
2023-03-18T12:10:50.764Z,4.60
2023-03-18T12:13:31.702Z,4.30
2023-03-18T12:16:33.831Z,4.40
2023-03-18T12:19:19.509Z,7.10
2023-03-18T12:21:54.078Z,7.90
2023-03-18T12:24:54.848Z,4.20
2023-03-18T12:27:48.731Z,5.90
2023-03-18T12:30:32.699Z,3.30
2023-03-18T12:33:06.734Z,3.30
2023-03-18T12:35:42.675Z,5.20
2023-03-18T12:38:24.441Z,3.60
2023-03-18T12:41:07.416Z,3.80
2023-03-18T12:43:37.994Z,3.80
2023-03-18T12:46:56.654Z,4.70
2023-03-18T12:49:34.121Z,3.80
2023-03-18T12:52:03.455Z,6.40
2023-03-18T12:54:34.394Z,4.50
2023-03-18T12:57:08.338Z,4.30
2023-03-18T12:59:43.374Z,4.70
2023-03-18T13:03:07.698Z,7.30
2023-03-18T13:05:52.633Z,5.90
2023-03-18T13:08:41.881Z,6.80
2023-03-18T13:11:32.768Z,6.90
2023-03-18T13:14:07.629Z,6.10
2023-03-18T13:16:37.849Z,7.50
2023-03-18T13:19:06.855Z,7.00
2023-03-18T13:21:43.234Z,4.80
2023-03-18T13:24:11.670Z,8.10
2023-03-18T13:26:48.990Z,6.60
2023-03-18T13:29:52.873Z,6.20
2023-03-18T13:32:50.061Z,6.00
2023-03-18T13:35:46.187Z,9.70
2023-03-18T13:38:36.352Z,10.40
2023-03-18T13:41:17.749Z,10.30
2023-03-18T13:43:49.435Z,6.30
2023-03-18T13:46:31.388Z,13.40
2023-03-18T13:49:16.700Z,16.00
2023-03-18T13:51:53.693Z,10.00
2023-03-18T13:54:22.020Z,9.20
2023-03-18T13:56:58.527Z,7.60
2023-03-18T13:59:33.366Z,4.60
2023-03-18T14:02:31.418Z,9.20
2023-03-18T14:05:00.171Z,5.30
2023-03-18T14:07:29.736Z,9.00
2023-03-18T14:10:17.340Z,6.30
2023-03-18T14:12:51.246Z,8.40
2023-03-18T14:15:39.578Z,6.60
2023-03-18T14:18:27.606Z,5.00
2023-03-18T14:21:00.397Z,5.60
2023-03-18T14:23:37.607Z,7.90
2023-03-18T14:26:27.211Z,7.70
2023-03-18T14:29:04.883Z,10.00
2023-03-18T14:31:40.709Z,9.10
2023-03-18T14:34:18.245Z,8.80
2023-03-18T14:37:04.837Z,8.40
2023-03-18T14:39:48.182Z,10.60
2023-03-18T14:42:23.876Z,10.30
2023-03-18T14:44:59.403Z,5.60
2023-03-18T14:47:39.513Z,9.70
2023-03-18T14:50:40.705Z,8.60
2023-03-18T14:53:35.628Z,7.70
2023-03-18T14:56:05.202Z,6.50
2023-03-18T14:58:35.947Z,11.30
2023-03-18T15:01:05.762Z,10.40
2023-03-18T15:03:34.614Z,10.90
2023-03-18T15:06:04.318Z,15.40
2023-03-18T15:08:47.442Z,9.30
2023-03-18T15:11:16.837Z,11.20
2023-03-18T15:13:47.298Z,8.90
2023-03-18T15:16:18.987Z,7.10
2023-03-18T15:18:52.905Z,8.70
2023-03-18T15:21:26.143Z,6.80
2023-03-18T15:24:03.817Z,9.00
2023-03-18T15:26:38.786Z,7.90
2023-03-18T15:29:28.742Z,11.20
2023-03-18T15:32:30.707Z,9.10
2023-03-18T15:35:11.414Z,8.10
2023-03-18T15:37:42.621Z,9.10
2023-03-18T15:40:29.509Z,7.50
2023-03-18T15:43:25.081Z,10.90
2023-03-18T15:46:05.124Z,8.90
2023-03-18T15:48:39.797Z,10.10
2023-03-18T15:53:59.373Z,8.00
2023-03-18T15:56:32.564Z,7.00
2023-03-18T15:59:13.237Z,9.50
2023-03-18T16:01:41.725Z,13.00
2023-03-18T16:04:14.908Z,13.20
2023-03-18T16:06:44.630Z,16.70
2023-03-18T16:09:17.668Z,21.80
2023-03-18T16:11:58.608Z,14.60
2023-03-18T16:14:37.657Z,16.60
2023-03-18T16:17:06.096Z,19.20
2023-03-18T16:19:39.592Z,20.30
2023-03-18T16:22:08.756Z,17.20
2023-03-18T16:24:37.813Z,32.90
2023-03-18T16:27:07.297Z,43.10
2023-03-18T16:29:38.332Z,47.10
2023-03-18T16:32:08.371Z,49.80
2023-03-18T16:34:36.840Z,38.30
2023-03-18T16:37:05.447Z,33.50
2023-03-18T16:39:36.981Z,43.00
2023-03-18T16:42:08.785Z,34.80
2023-03-18T16:44:37.045Z,35.90
2023-03-18T16:47:06.172Z,31.70
2023-03-18T16:49:37.478Z,29.80
2023-03-18T16:52:06.869Z,36.80
2023-03-18T16:54:35.139Z,41.70
2023-03-18T16:57:07.062Z,35.20
2023-03-18T16:59:36.665Z,35.50
2023-03-18T17:02:06.224Z,34.70
2023-03-18T17:04:35.004Z,41.80
2023-03-18T17:07:04.840Z,41.70
2023-03-18T17:09:35.036Z,39.40
2023-03-18T17:12:07.576Z,45.00
2023-03-18T17:14:38.803Z,43.80
2023-03-18T17:17:09.012Z,35.90
2023-03-18T17:19:37.276Z,38.30
2023-03-18T17:22:22.859Z,29.20
2023-03-18T17:24:51.761Z,27.70
2023-03-18T17:27:29.717Z,27.40
2023-03-18T17:29:57.898Z,24.50
2023-03-18T17:32:27.491Z,26.70
2023-03-18T17:34:58.208Z,20.80
2023-03-18T17:37:26.999Z,23.80
2023-03-18T17:39:57.292Z,22.60
2023-03-18T17:42:30.482Z,22.40
2023-03-18T17:45:06.045Z,29.20
2023-03-18T17:47:34.458Z,28.00
2023-03-18T17:50:05.036Z,22.00
2023-03-18T17:52:34.137Z,22.20
2023-03-18T17:55:02.436Z,27.20
2023-03-18T17:57:32.977Z,26.60
2023-03-18T18:00:01.152Z,25.50
2023-03-18T18:02:29.951Z,23.50
2023-03-18T18:07:32.510Z,22.80
2023-03-18T18:10:01.400Z,24.70
2023-03-18T18:12:31.531Z,23.40
2023-03-18T18:15:00.147Z,24.80
2023-03-18T18:17:28.590Z,25.60
2023-03-18T18:19:57.796Z,32.20
2023-03-18T18:22:26.794Z,40.60
2023-03-18T18:25:00.691Z,32.80
2023-03-18T18:27:28.993Z,39.80
2023-03-18T18:29:57.762Z,47.40
2023-03-18T18:32:26.946Z,76.40
2023-03-18T18:34:56.069Z,84.90
2023-03-18T18:37:25.260Z,98.40
2023-03-18T18:39:53.566Z,88.40
2023-03-18T18:42:22.016Z,77.50
2023-03-18T18:44:52.865Z,84.50
2023-03-18T18:47:22.198Z,74.30
2023-03-18T18:49:51.262Z,85.40
2023-03-18T18:52:19.947Z,91.00
2023-03-18T18:54:48.464Z,109.80
2023-03-18T18:57:26.845Z,93.00
2023-03-18T18:59:55.819Z,113.20
2023-03-18T19:02:35.325Z,69.80
2023-03-18T19:05:04.982Z,56.50
2023-03-18T19:07:34.000Z,75.70
2023-03-18T19:10:02.563Z,73.30
2023-03-18T19:12:31.060Z,82.10
2023-03-18T19:15:00.044Z,89.90
2023-03-18T19:17:29.271Z,99.00
2023-03-18T19:19:58.734Z,95.70
2023-03-18T19:22:28.661Z,103.60
2023-03-18T19:24:57.366Z,87.30
2023-03-18T19:27:27.973Z,68.90
2023-03-18T19:29:58.133Z,68.50
2023-03-18T19:32:27.122Z,69.70
2023-03-18T19:34:59.484Z,59.80
2023-03-18T19:37:29.513Z,56.90
2023-03-18T19:39:58.176Z,62.30
2023-03-18T19:42:27.077Z,63.60
2023-03-18T19:44:56.792Z,58.10
2023-03-18T19:47:28.732Z,50.70
2023-03-18T19:49:57.636Z,45.60
2023-03-18T19:52:27.395Z,47.30
2023-03-18T19:54:56.373Z,45.90
2023-03-18T19:57:29.574Z,37.20
2023-03-18T20:00:01.500Z,38.40
2023-03-18T20:02:33.178Z,32.30
2023-03-18T20:05:03.820Z,32.10
2023-03-18T20:07:33.100Z,29.10
2023-03-18T20:10:02.024Z,31.20
2023-03-18T20:12:42.818Z,26.40
2023-03-18T20:15:20.289Z,23.70
2023-03-18T20:17:49.551Z,29.40
2023-03-18T20:20:25.931Z,37.40
2023-03-18T20:22:57.016Z,43.60
2023-03-18T20:25:32.606Z,43.60
2023-03-18T20:28:04.849Z,47.00
2023-03-18T20:30:35.962Z,52.50
2023-03-18T20:33:17.518Z,56.70
2023-03-18T20:35:47.137Z,60.50
2023-03-18T20:38:20.217Z,67.10
2023-03-18T20:40:51.180Z,63.80
2023-03-18T20:43:22.483Z,57.80
2023-03-18T20:45:53.193Z,58.90
2023-03-18T20:48:22.547Z,67.10
2023-03-18T20:50:52.154Z,67.90
2023-03-18T20:53:25.346Z,73.50
2023-03-18T20:55:53.971Z,72.30
2023-03-18T20:58:26.460Z,79.70
2023-03-18T21:00:55.515Z,80.30
2023-03-18T21:03:29.601Z,76.20
2023-03-18T21:05:59.334Z,73.40
2023-03-18T21:08:28.474Z,69.80
2023-03-18T21:11:04.105Z,73.90
2023-03-18T21:13:36.423Z,64.00
2023-03-18T21:16:11.055Z,68.80
2023-03-18T21:18:45.590Z,70.50
2023-03-18T21:21:25.143Z,61.30
2023-03-18T21:23:54.002Z,65.90
2023-03-18T21:26:23.362Z,63.60
2023-03-18T21:28:52.773Z,63.40
2023-03-18T21:31:24.133Z,81.10
2023-03-18T21:33:53.705Z,93.80
2023-03-18T21:36:22.621Z,158.50
2023-03-18T21:38:50.768Z,198.50
2023-03-18T21:41:20.441Z,169.00
2023-03-18T21:43:53.467Z,159.70
2023-03-18T21:46:24.724Z,126.40
2023-03-18T21:48:53.192Z,114.80
2023-03-18T21:51:39.607Z,114.50
2023-03-18T21:54:18.468Z,112.00
2023-03-18T21:56:48.074Z,128.20
2023-03-18T21:59:16.834Z,101.50
2023-03-18T22:01:46.886Z,66.00
2023-03-18T22:04:15.372Z,51.90
2023-03-18T22:06:43.835Z,48.10
2023-03-18T22:09:14.779Z,49.60
2023-03-18T22:11:43.845Z,43.00
2023-03-18T22:14:13.761Z,39.60
2023-03-18T22:16:42.759Z,45.20
2023-03-18T22:19:11.349Z,45.90
2023-03-18T22:21:40.818Z,44.20
2023-03-18T22:24:13.947Z,42.80
2023-03-18T22:26:42.073Z,43.00
2023-03-18T22:29:12.852Z,54.20
2023-03-18T22:31:43.914Z,57.20
2023-03-18T22:34:22.799Z,57.50
2023-03-18T22:36:51.916Z,60.80
2023-03-18T22:39:20.242Z,65.80
2023-03-18T22:41:53.897Z,86.20
2023-03-18T22:44:22.961Z,101.70
2023-03-18T22:46:51.543Z,97.00
2023-03-18T22:49:20.163Z,130.60
2023-03-18T22:51:49.183Z,126.30
2023-03-18T22:54:18.626Z,125.20
2023-03-18T22:56:47.362Z,136.80
2023-03-18T22:59:15.734Z,110.20
2023-03-18T23:01:44.942Z,105.20
2023-03-18T23:04:13.504Z,104.70
2023-03-18T23:06:44.400Z,103.40
2023-03-18T23:09:13.448Z,107.00
2023-03-18T23:11:42.136Z,91.40
2023-03-18T23:14:11.236Z,94.10
2023-03-18T23:16:41.132Z,94.90
2023-03-18T23:19:09.748Z,81.00
2023-03-18T23:21:38.009Z,86.20
2023-03-18T23:24:07.463Z,84.60
2023-03-18T23:26:36.825Z,85.70
2023-03-18T23:29:06.323Z,85.40
2023-03-18T23:31:34.651Z,87.00
2023-03-18T23:34:03.905Z,88.60
2023-03-18T23:36:32.928Z,85.80
2023-03-18T23:39:01.397Z,80.90
2023-03-18T23:41:30.994Z,85.60
2023-03-18T23:44:03.701Z,77.60
2023-03-18T23:46:33.045Z,84.90
2023-03-18T23:49:01.560Z,81.50
2023-03-18T23:51:30.158Z,77.30
2023-03-18T23:53:58.419Z,77.40
2023-03-18T23:56:26.463Z,79.40
2023-03-18T23:58:55.079Z,79.00
